sensor_id;sensor_type;location;lat;lon;timestamp;temperature;humidity
55828;DHT22;41758;51.992;5.890;2023-08-08T00:02:08;18.90;69.30
55828;DHT22;41758;51.992;5.890;2023-08-08T00:04:34;18.80;69.30
55828;DHT22;41758;51.992;5.890;2023-08-08T00:07:00;18.80;69.30
55828;DHT22;41758;51.992;5.890;2023-08-08T00:09:26;18.80;69.30
55828;DHT22;41758;51.992;5.890;2023-08-08T00:11:52;18.80;69.30
55828;DHT22;41758;51.992;5.890;2023-08-08T00:14:18;18.80;69.40
55828;DHT22;41758;51.992;5.890;2023-08-08T00:16:44;18.80;69.50
55828;DHT22;41758;51.992;5.890;2023-08-08T00:19:10;18.80;69.50
55828;DHT22;41758;51.992;5.890;2023-08-08T00:21:35;18.80;69.50
55828;DHT22;41758;51.992;5.890;2023-08-08T00:24:01;18.70;69.80
55828;DHT22;41758;51.992;5.890;2023-08-08T00:26:27;18.70;69.70
55828;DHT22;41758;51.992;5.890;2023-08-08T00:28:52;18.70;69.80
55828;DHT22;41758;51.992;5.890;2023-08-08T00:31:19;18.70;69.90
55828;DHT22;41758;51.992;5.890;2023-08-08T00:33:45;18.70;70.00
55828;DHT22;41758;51.992;5.890;2023-08-08T00:36:11;18.80;70.10
55828;DHT22;41758;51.992;5.890;2023-08-08T00:38:37;18.80;70.20
55828;DHT22;41758;51.992;5.890;2023-08-08T00:41:03;18.80;70.00
55828;DHT22;41758;51.992;5.890;2023-08-08T00:43:30;18.80;70.00
55828;DHT22;41758;51.992;5.890;2023-08-08T00:45:57;18.80;70.20
55828;DHT22;41758;51.992;5.890;2023-08-08T00:48:23;18.80;70.20
55828;DHT22;41758;51.992;5.890;2023-08-08T00:50:50;18.80;70.20
55828;DHT22;41758;51.992;5.890;2023-08-08T00:53:17;18.80;70.20
55828;DHT22;41758;51.992;5.890;2023-08-08T00:55:45;18.80;70.20
55828;DHT22;41758;51.992;5.890;2023-08-08T00:58:11;18.80;70.30
55828;DHT22;41758;51.992;5.890;2023-08-08T01:00:37;18.90;70.40
55828;DHT22;41758;51.992;5.890;2023-08-08T01:03:04;18.90;70.40
55828;DHT22;41758;51.992;5.890;2023-08-08T01:05:35;18.90;70.30
55828;DHT22;41758;51.992;5.890;2023-08-08T01:08:07;18.90;70.30
55828;DHT22;41758;51.992;5.890;2023-08-08T01:10:40;18.90;70.30
55828;DHT22;41758;51.992;5.890;2023-08-08T01:13:08;18.90;70.30
55828;DHT22;41758;51.992;5.890;2023-08-08T01:15:36;18.90;70.30
55828;DHT22;41758;51.992;5.890;2023-08-08T01:18:04;18.90;70.30
55828;DHT22;41758;51.992;5.890;2023-08-08T01:20:35;18.90;70.40
55828;DHT22;41758;51.992;5.890;2023-08-08T01:25:40;18.80;70.50
55828;DHT22;41758;51.992;5.890;2023-08-08T01:28:07;18.80;70.70
55828;DHT22;41758;51.992;5.890;2023-08-08T01:30:33;18.80;70.80
55828;DHT22;41758;51.992;5.890;2023-08-08T01:33:00;18.80;70.90
55828;DHT22;41758;51.992;5.890;2023-08-08T01:35:30;18.80;70.90
55828;DHT22;41758;51.992;5.890;2023-08-08T01:38:19;18.80;71.00
55828;DHT22;41758;51.992;5.890;2023-08-08T01:40:46;18.80;70.90
55828;DHT22;41758;51.992;5.890;2023-08-08T01:43:14;18.70;70.90
55828;DHT22;41758;51.992;5.890;2023-08-08T01:45:40;18.80;71.00
55828;DHT22;41758;51.992;5.890;2023-08-08T01:48:08;18.70;71.00
55828;DHT22;41758;51.992;5.890;2023-08-08T01:50:34;18.70;71.10
55828;DHT22;41758;51.992;5.890;2023-08-08T01:53:00;18.70;71.10
55828;DHT22;41758;51.992;5.890;2023-08-08T01:55:26;18.70;71.20
55828;DHT22;41758;51.992;5.890;2023-08-08T01:57:52;18.70;71.00
55828;DHT22;41758;51.992;5.890;2023-08-08T02:00:18;18.70;71.00
55828;DHT22;41758;51.992;5.890;2023-08-08T02:02:43;18.60;71.00
55828;DHT22;41758;51.992;5.890;2023-08-08T02:05:10;18.60;71.10
55828;DHT22;41758;51.992;5.890;2023-08-08T02:07:35;18.60;71.20
55828;DHT22;41758;51.992;5.890;2023-08-08T02:10:02;18.60;71.10
55828;DHT22;41758;51.992;5.890;2023-08-08T02:12:29;18.60;71.20
55828;DHT22;41758;51.992;5.890;2023-08-08T02:14:56;18.60;71.30
55828;DHT22;41758;51.992;5.890;2023-08-08T02:17:22;18.60;71.20
55828;DHT22;41758;51.992;5.890;2023-08-08T02:19:48;18.50;71.30
55828;DHT22;41758;51.992;5.890;2023-08-08T02:22:14;18.60;71.50
55828;DHT22;41758;51.992;5.890;2023-08-08T02:24:39;18.50;71.30
55828;DHT22;41758;51.992;5.890;2023-08-08T02:27:05;18.50;71.40
55828;DHT22;41758;51.992;5.890;2023-08-08T02:29:31;18.50;71.30
55828;DHT22;41758;51.992;5.890;2023-08-08T02:31:59;18.40;71.40
55828;DHT22;41758;51.992;5.890;2023-08-08T02:34:25;18.40;71.40
55828;DHT22;41758;51.992;5.890;2023-08-08T02:36:51;18.50;71.40
55828;DHT22;41758;51.992;5.890;2023-08-08T02:39:16;18.50;71.40
55828;DHT22;41758;51.992;5.890;2023-08-08T02:41:42;18.50;71.50
55828;DHT22;41758;51.992;5.890;2023-08-08T02:44:09;18.60;71.50
55828;DHT22;41758;51.992;5.890;2023-08-08T02:46:34;18.50;71.40
55828;DHT22;41758;51.992;5.890;2023-08-08T02:49:02;18.60;71.40
55828;DHT22;41758;51.992;5.890;2023-08-08T02:51:28;18.50;71.30
55828;DHT22;41758;51.992;5.890;2023-08-08T02:53:53;18.60;71.30
55828;DHT22;41758;51.992;5.890;2023-08-08T02:56:20;18.60;71.30
55828;DHT22;41758;51.992;5.890;2023-08-08T02:58:46;18.60;71.30
55828;DHT22;41758;51.992;5.890;2023-08-08T03:01:12;18.60;71.30
55828;DHT22;41758;51.992;5.890;2023-08-08T03:03:42;18.60;71.20
55828;DHT22;41758;51.992;5.890;2023-08-08T03:06:08;18.60;71.20
55828;DHT22;41758;51.992;5.890;2023-08-08T03:08:34;18.60;71.10
55828;DHT22;41758;51.992;5.890;2023-08-08T03:11:00;18.60;71.10
55828;DHT22;41758;51.992;5.890;2023-08-08T03:13:27;18.60;71.10
55828;DHT22;41758;51.992;5.890;2023-08-08T03:15:54;18.60;71.10
55828;DHT22;41758;51.992;5.890;2023-08-08T03:18:23;18.60;71.10
55828;DHT22;41758;51.992;5.890;2023-08-08T03:20:50;18.60;71.10
55828;DHT22;41758;51.992;5.890;2023-08-08T03:23:17;18.60;71.20
55828;DHT22;41758;51.992;5.890;2023-08-08T03:25:43;18.60;71.30
55828;DHT22;41758;51.992;5.890;2023-08-08T03:28:09;18.60;71.40
55828;DHT22;41758;51.992;5.890;2023-08-08T03:30:38;18.60;71.40
55828;DHT22;41758;51.992;5.890;2023-08-08T03:33:06;18.60;71.50
55828;DHT22;41758;51.992;5.890;2023-08-08T03:35:33;18.70;71.60
55828;DHT22;41758;51.992;5.890;2023-08-08T03:38:00;18.70;71.60
55828;DHT22;41758;51.992;5.890;2023-08-08T03:40:26;18.70;71.50
55828;DHT22;41758;51.992;5.890;2023-08-08T03:42:52;18.80;71.60
55828;DHT22;41758;51.992;5.890;2023-08-08T03:45:18;18.80;71.50
55828;DHT22;41758;51.992;5.890;2023-08-08T03:47:44;18.80;71.50
55828;DHT22;41758;51.992;5.890;2023-08-08T03:50:11;18.80;71.60
55828;DHT22;41758;51.992;5.890;2023-08-08T03:52:37;18.80;71.60
55828;DHT22;41758;51.992;5.890;2023-08-08T03:55:04;18.80;71.70
55828;DHT22;41758;51.992;5.890;2023-08-08T03:57:30;18.80;71.70
55828;DHT22;41758;51.992;5.890;2023-08-08T03:59:56;18.80;71.70
55828;DHT22;41758;51.992;5.890;2023-08-08T04:02:22;18.80;71.70
55828;DHT22;41758;51.992;5.890;2023-08-08T04:04:48;18.80;71.70
55828;DHT22;41758;51.992;5.890;2023-08-08T04:07:14;18.80;71.70
55828;DHT22;41758;51.992;5.890;2023-08-08T04:09:40;18.80;71.80
55828;DHT22;41758;51.992;5.890;2023-08-08T04:12:06;18.80;71.70
55828;DHT22;41758;51.992;5.890;2023-08-08T04:14:32;18.80;71.70
55828;DHT22;41758;51.992;5.890;2023-08-08T04:16:58;18.90;71.90
55828;DHT22;41758;51.992;5.890;2023-08-08T04:19:24;18.80;71.70
55828;DHT22;41758;51.992;5.890;2023-08-08T04:21:50;18.80;71.70
55828;DHT22;41758;51.992;5.890;2023-08-08T04:24:15;18.80;71.80
55828;DHT22;41758;51.992;5.890;2023-08-08T04:26:41;18.90;71.80
55828;DHT22;41758;51.992;5.890;2023-08-08T04:29:07;18.80;71.70
55828;DHT22;41758;51.992;5.890;2023-08-08T04:31:33;18.80;71.80
55828;DHT22;41758;51.992;5.890;2023-08-08T04:34:01;18.90;71.80
55828;DHT22;41758;51.992;5.890;2023-08-08T04:36:27;18.90;71.70
55828;DHT22;41758;51.992;5.890;2023-08-08T04:38:53;18.80;71.70
55828;DHT22;41758;51.992;5.890;2023-08-08T04:41:19;18.90;71.70
55828;DHT22;41758;51.992;5.890;2023-08-08T04:43:45;18.90;71.70
55828;DHT22;41758;51.992;5.890;2023-08-08T04:46:11;18.90;71.70
55828;DHT22;41758;51.992;5.890;2023-08-08T04:48:37;18.90;71.70
55828;DHT22;41758;51.992;5.890;2023-08-08T04:51:06;18.80;71.70
55828;DHT22;41758;51.992;5.890;2023-08-08T04:53:32;18.90;71.90
55828;DHT22;41758;51.992;5.890;2023-08-08T04:55:58;18.90;71.90
55828;DHT22;41758;51.992;5.890;2023-08-08T04:58:24;18.90;71.80
55828;DHT22;41758;51.992;5.890;2023-08-08T05:00:50;18.90;71.90
55828;DHT22;41758;51.992;5.890;2023-08-08T05:03:18;18.90;72.00
55828;DHT22;41758;51.992;5.890;2023-08-08T05:05:44;18.90;72.00
55828;DHT22;41758;51.992;5.890;2023-08-08T05:08:13;19.00;72.00
55828;DHT22;41758;51.992;5.890;2023-08-08T05:10:40;18.90;71.80
55828;DHT22;41758;51.992;5.890;2023-08-08T05:13:05;18.90;72.00
55828;DHT22;41758;51.992;5.890;2023-08-08T05:15:31;18.90;71.90
55828;DHT22;41758;51.992;5.890;2023-08-08T05:17:57;18.90;71.90
55828;DHT22;41758;51.992;5.890;2023-08-08T05:20:23;18.90;72.00
55828;DHT22;41758;51.992;5.890;2023-08-08T05:22:49;18.90;72.10
55828;DHT22;41758;51.992;5.890;2023-08-08T05:25:14;18.90;72.20
55828;DHT22;41758;51.992;5.890;2023-08-08T05:27:40;19.00;72.30
55828;DHT22;41758;51.992;5.890;2023-08-08T05:30:06;19.00;72.40
55828;DHT22;41758;51.992;5.890;2023-08-08T05:32:32;19.10;72.40
55828;DHT22;41758;51.992;5.890;2023-08-08T05:34:58;19.10;72.30
55828;DHT22;41758;51.992;5.890;2023-08-08T05:37:26;19.10;72.30
55828;DHT22;41758;51.992;5.890;2023-08-08T05:39:53;19.10;72.20
55828;DHT22;41758;51.992;5.890;2023-08-08T05:42:18;19.10;72.20
55828;DHT22;41758;51.992;5.890;2023-08-08T05:44:44;19.10;72.40
55828;DHT22;41758;51.992;5.890;2023-08-08T05:47:11;19.10;72.30
55828;DHT22;41758;51.992;5.890;2023-08-08T05:49:38;19.10;72.40
55828;DHT22;41758;51.992;5.890;2023-08-08T05:52:04;19.20;72.50
55828;DHT22;41758;51.992;5.890;2023-08-08T05:54:30;19.20;72.60
55828;DHT22;41758;51.992;5.890;2023-08-08T05:56:56;19.30;72.70
55828;DHT22;41758;51.992;5.890;2023-08-08T05:59:22;19.30;72.50
55828;DHT22;41758;51.992;5.890;2023-08-08T06:01:48;19.30;72.50
55828;DHT22;41758;51.992;5.890;2023-08-08T06:04:13;19.30;72.60
55828;DHT22;41758;51.992;5.890;2023-08-08T06:06:39;19.30;72.50
55828;DHT22;41758;51.992;5.890;2023-08-08T06:09:05;19.40;72.50
55828;DHT22;41758;51.992;5.890;2023-08-08T06:11:31;19.40;72.70
55828;DHT22;41758;51.992;5.890;2023-08-08T06:13:57;19.40;72.80
55828;DHT22;41758;51.992;5.890;2023-08-08T06:16:22;19.50;72.70
55828;DHT22;41758;51.992;5.890;2023-08-08T06:18:48;19.40;72.60
55828;DHT22;41758;51.992;5.890;2023-08-08T06:21:14;19.50;72.70
55828;DHT22;41758;51.992;5.890;2023-08-08T06:23:40;19.50;72.80
55828;DHT22;41758;51.992;5.890;2023-08-08T06:26:05;19.60;72.90
55828;DHT22;41758;51.992;5.890;2023-08-08T06:28:31;19.60;73.00
55828;DHT22;41758;51.992;5.890;2023-08-08T06:31:01;19.70;73.00
55828;DHT22;41758;51.992;5.890;2023-08-08T06:33:27;19.70;73.00
55828;DHT22;41758;51.992;5.890;2023-08-08T06:35:55;19.80;72.90
55828;DHT22;41758;51.992;5.890;2023-08-08T06:38:21;19.80;72.60
55828;DHT22;41758;51.992;5.890;2023-08-08T06:40:46;19.80;72.60
55828;DHT22;41758;51.992;5.890;2023-08-08T06:43:12;19.70;72.30
55828;DHT22;41758;51.992;5.890;2023-08-08T06:45:39;19.70;72.40
55828;DHT22;41758;51.992;5.890;2023-08-08T06:48:05;19.80;72.70
55828;DHT22;41758;51.992;5.890;2023-08-08T06:50:31;19.80;72.80
55828;DHT22;41758;51.992;5.890;2023-08-08T06:52:56;19.80;72.80
55828;DHT22;41758;51.992;5.890;2023-08-08T06:55:22;19.80;72.80
55828;DHT22;41758;51.992;5.890;2023-08-08T06:57:48;19.90;72.70
55828;DHT22;41758;51.992;5.890;2023-08-08T07:00:14;19.90;72.60
55828;DHT22;41758;51.992;5.890;2023-08-08T07:02:41;19.90;72.60
55828;DHT22;41758;51.992;5.890;2023-08-08T07:05:07;19.90;72.60
55828;DHT22;41758;51.992;5.890;2023-08-08T07:07:35;19.90;72.80
55828;DHT22;41758;51.992;5.890;2023-08-08T07:10:02;20.00;72.80
55828;DHT22;41758;51.992;5.890;2023-08-08T07:12:29;20.00;72.60
55828;DHT22;41758;51.992;5.890;2023-08-08T07:14:55;20.00;72.60
55828;DHT22;41758;51.992;5.890;2023-08-08T07:17:20;19.90;72.30
55828;DHT22;41758;51.992;5.890;2023-08-08T07:19:46;19.90;72.00
55828;DHT22;41758;51.992;5.890;2023-08-08T07:22:12;19.90;72.00
55828;DHT22;41758;51.992;5.890;2023-08-08T07:24:37;19.90;71.90
55828;DHT22;41758;51.992;5.890;2023-08-08T07:27:04;19.80;71.90
55828;DHT22;41758;51.992;5.890;2023-08-08T07:29:30;19.80;71.90
55828;DHT22;41758;51.992;5.890;2023-08-08T07:31:58;19.70;71.90
55828;DHT22;41758;51.992;5.890;2023-08-08T07:34:23;19.70;72.00
55828;DHT22;41758;51.992;5.890;2023-08-08T07:36:50;19.70;72.10
55828;DHT22;41758;51.992;5.890;2023-08-08T07:39:16;19.70;72.10
55828;DHT22;41758;51.992;5.890;2023-08-08T07:41:42;19.70;72.50
55828;DHT22;41758;51.992;5.890;2023-08-08T07:44:08;19.80;72.60
55828;DHT22;41758;51.992;5.890;2023-08-08T07:46:33;19.80;72.50
55828;DHT22;41758;51.992;5.890;2023-08-08T07:48:59;19.80;72.30
55828;DHT22;41758;51.992;5.890;2023-08-08T07:51:29;19.80;72.20
55828;DHT22;41758;51.992;5.890;2023-08-08T07:53:55;19.80;72.10
55828;DHT22;41758;51.992;5.890;2023-08-08T07:56:20;19.80;72.30
55828;DHT22;41758;51.992;5.890;2023-08-08T07:58:46;19.80;72.60
55828;DHT22;41758;51.992;5.890;2023-08-08T08:01:12;19.90;71.70
55828;DHT22;41758;51.992;5.890;2023-08-08T08:03:39;19.90;71.60
55828;DHT22;41758;51.992;5.890;2023-08-08T08:06:05;19.80;71.50
55828;DHT22;41758;51.992;5.890;2023-08-08T08:08:31;19.90;71.80
55828;DHT22;41758;51.992;5.890;2023-08-08T08:10:57;19.90;72.10
55828;DHT22;41758;51.992;5.890;2023-08-08T08:13:23;19.90;72.10
55828;DHT22;41758;51.992;5.890;2023-08-08T08:15:48;20.00;72.00
55828;DHT22;41758;51.992;5.890;2023-08-08T08:18:14;20.00;72.10
55828;DHT22;41758;51.992;5.890;2023-08-08T08:20:43;20.00;72.40
55828;DHT22;41758;51.992;5.890;2023-08-08T08:23:09;20.10;72.60
55828;DHT22;41758;51.992;5.890;2023-08-08T08:25:35;20.30;72.80
55828;DHT22;41758;51.992;5.890;2023-08-08T08:28:01;20.30;72.60
55828;DHT22;41758;51.992;5.890;2023-08-08T08:30:27;20.30;72.30
55828;DHT22;41758;51.992;5.890;2023-08-08T08:32:53;20.40;72.20
55828;DHT22;41758;51.992;5.890;2023-08-08T08:35:18;20.40;72.10
55828;DHT22;41758;51.992;5.890;2023-08-08T08:37:44;20.40;72.20
55828;DHT22;41758;51.992;5.890;2023-08-08T08:40:10;20.50;72.30
55828;DHT22;41758;51.992;5.890;2023-08-08T08:42:38;20.60;72.20
55828;DHT22;41758;51.992;5.890;2023-08-08T08:45:05;20.80;71.90
55828;DHT22;41758;51.992;5.890;2023-08-08T08:47:31;20.80;72.00
55828;DHT22;41758;51.992;5.890;2023-08-08T08:49:58;20.90;71.90
55828;DHT22;41758;51.992;5.890;2023-08-08T08:52:24;20.90;71.40
55828;DHT22;41758;51.992;5.890;2023-08-08T08:54:53;20.90;71.60
55828;DHT22;41758;51.992;5.890;2023-08-08T08:57:21;21.00;71.90
55828;DHT22;41758;51.992;5.890;2023-08-08T08:59:49;21.10;72.00
55828;DHT22;41758;51.992;5.890;2023-08-08T09:02:18;21.20;71.80
55828;DHT22;41758;51.992;5.890;2023-08-08T09:04:44;21.30;71.60
55828;DHT22;41758;51.992;5.890;2023-08-08T09:07:11;21.30;71.60
55828;DHT22;41758;51.992;5.890;2023-08-08T09:09:37;21.30;70.00
55828;DHT22;41758;51.992;5.890;2023-08-08T09:12:04;21.30;70.50
55828;DHT22;41758;51.992;5.890;2023-08-08T09:14:31;21.30;70.80
55828;DHT22;41758;51.992;5.890;2023-08-08T09:16:57;21.30;70.80
55828;DHT22;41758;51.992;5.890;2023-08-08T09:19:23;21.30;71.10
55828;DHT22;41758;51.992;5.890;2023-08-08T09:21:50;21.40;70.80
55828;DHT22;41758;51.992;5.890;2023-08-08T09:24:17;21.50;70.60
55828;DHT22;41758;51.992;5.890;2023-08-08T09:26:44;21.50;70.70
55828;DHT22;41758;51.992;5.890;2023-08-08T09:29:12;21.50;70.20
55828;DHT22;41758;51.992;5.890;2023-08-08T09:31:39;21.60;70.10
55828;DHT22;41758;51.992;5.890;2023-08-08T09:34:05;21.60;69.20
55828;DHT22;41758;51.992;5.890;2023-08-08T09:36:32;21.60;69.00
55828;DHT22;41758;51.992;5.890;2023-08-08T09:38:59;21.60;68.50
55828;DHT22;41758;51.992;5.890;2023-08-08T09:41:25;21.60;69.50
55828;DHT22;41758;51.992;5.890;2023-08-08T09:43:52;21.70;69.90
55828;DHT22;41758;51.992;5.890;2023-08-08T09:46:19;21.70;70.40
55828;DHT22;41758;51.992;5.890;2023-08-08T09:48:45;21.80;70.40
55828;DHT22;41758;51.992;5.890;2023-08-08T09:51:12;21.80;69.70
55828;DHT22;41758;51.992;5.890;2023-08-08T09:53:39;21.80;70.00
55828;DHT22;41758;51.992;5.890;2023-08-08T09:56:06;21.90;70.20
55828;DHT22;41758;51.992;5.890;2023-08-08T09:58:32;21.90;69.90
55828;DHT22;41758;51.992;5.890;2023-08-08T10:00:58;21.90;69.50
55828;DHT22;41758;51.992;5.890;2023-08-08T10:03:25;22.00;70.10
55828;DHT22;41758;51.992;5.890;2023-08-08T10:05:52;22.00;70.00
55828;DHT22;41758;51.992;5.890;2023-08-08T10:08:18;22.10;69.40
55828;DHT22;41758;51.992;5.890;2023-08-08T10:10:47;22.00;69.20
55828;DHT22;41758;51.992;5.890;2023-08-08T10:13:23;22.00;69.90
55828;DHT22;41758;51.992;5.890;2023-08-08T10:15:50;22.10;69.70
55828;DHT22;41758;51.992;5.890;2023-08-08T10:18:17;22.10;70.00
55828;DHT22;41758;51.992;5.890;2023-08-08T10:20:48;22.10;69.30
55828;DHT22;41758;51.992;5.890;2023-08-08T10:23:16;22.20;70.10
55828;DHT22;41758;51.992;5.890;2023-08-08T10:25:51;22.30;70.70
55828;DHT22;41758;51.992;5.890;2023-08-08T10:28:19;22.30;71.10
55828;DHT22;41758;51.992;5.890;2023-08-08T10:30:46;22.40;71.40
55828;DHT22;41758;51.992;5.890;2023-08-08T10:33:16;22.60;71.40
55828;DHT22;41758;51.992;5.890;2023-08-08T10:35:54;22.80;71.70
55828;DHT22;41758;51.992;5.890;2023-08-08T10:38:26;22.90;71.80
55828;DHT22;41758;51.992;5.890;2023-08-08T10:40:58;23.00;70.20
55828;DHT22;41758;51.992;5.890;2023-08-08T10:43:29;23.00;70.00
55828;DHT22;41758;51.992;5.890;2023-08-08T10:46:03;23.10;70.80
55828;DHT22;41758;51.992;5.890;2023-08-08T10:48:29;23.30;71.10
55828;DHT22;41758;51.992;5.890;2023-08-08T10:50:57;23.40;71.30
55828;DHT22;41758;51.992;5.890;2023-08-08T10:53:27;23.60;70.30
55828;DHT22;41758;51.992;5.890;2023-08-08T10:56:02;23.60;68.60
55828;DHT22;41758;51.992;5.890;2023-08-08T10:58:39;23.80;66.50
55828;DHT22;41758;51.992;5.890;2023-08-08T11:01:05;23.80;66.80
55828;DHT22;41758;51.992;5.890;2023-08-08T11:03:40;23.70;66.90
55828;DHT22;41758;51.992;5.890;2023-08-08T11:06:10;23.70;63.70
55828;DHT22;41758;51.992;5.890;2023-08-08T11:08:37;23.60;63.20
55828;DHT22;41758;51.992;5.890;2023-08-08T11:11:06;23.60;61.40
55828;DHT22;41758;51.992;5.890;2023-08-08T11:13:33;23.50;62.00
55828;DHT22;41758;51.992;5.890;2023-08-08T11:15:58;23.40;63.00
55828;DHT22;41758;51.992;5.890;2023-08-08T11:18:27;23.60;64.20
55828;DHT22;41758;51.992;5.890;2023-08-08T11:20:53;23.80;63.20
55828;DHT22;41758;51.992;5.890;2023-08-08T11:23:19;23.90;61.20
55828;DHT22;41758;51.992;5.890;2023-08-08T11:25:47;23.90;62.30
55828;DHT22;41758;51.992;5.890;2023-08-08T11:28:13;23.90;63.30
55828;DHT22;41758;51.992;5.890;2023-08-08T11:30:43;23.90;62.60
55828;DHT22;41758;51.992;5.890;2023-08-08T11:33:13;23.90;60.60
55828;DHT22;41758;51.992;5.890;2023-08-08T11:35:43;23.90;60.40
55828;DHT22;41758;51.992;5.890;2023-08-08T11:38:11;23.90;60.80
55828;DHT22;41758;51.992;5.890;2023-08-08T11:40:38;23.80;55.80
55828;DHT22;41758;51.992;5.890;2023-08-08T11:43:04;23.70;57.10
55828;DHT22;41758;51.992;5.890;2023-08-08T11:45:31;23.70;54.30
55828;DHT22;41758;51.992;5.890;2023-08-08T11:47:57;23.60;57.30
55828;DHT22;41758;51.992;5.890;2023-08-08T11:50:25;23.60;57.60
55828;DHT22;41758;51.992;5.890;2023-08-08T11:52:52;23.70;55.20
55828;DHT22;41758;51.992;5.890;2023-08-08T11:55:19;23.80;55.90
55828;DHT22;41758;51.992;5.890;2023-08-08T11:57:48;24.00;56.80
55828;DHT22;41758;51.992;5.890;2023-08-08T12:00:15;24.10;54.40
55828;DHT22;41758;51.992;5.890;2023-08-08T12:02:45;24.30;53.60
55828;DHT22;41758;51.992;5.890;2023-08-08T12:05:14;24.40;53.50
55828;DHT22;41758;51.992;5.890;2023-08-08T12:07:48;24.50;55.10
55828;DHT22;41758;51.992;5.890;2023-08-08T12:10:19;24.70;54.40
55828;DHT22;41758;51.992;5.890;2023-08-08T12:12:45;24.70;51.50
55828;DHT22;41758;51.992;5.890;2023-08-08T12:15:11;24.70;52.70
55828;DHT22;41758;51.992;5.890;2023-08-08T12:17:38;24.70;53.70
55828;DHT22;41758;51.992;5.890;2023-08-08T12:20:05;24.80;52.90
55828;DHT22;41758;51.992;5.890;2023-08-08T12:22:31;24.90;54.90
55828;DHT22;41758;51.992;5.890;2023-08-08T12:24:57;25.00;51.70
55828;DHT22;41758;51.992;5.890;2023-08-08T12:27:23;25.10;52.60
55828;DHT22;41758;51.992;5.890;2023-08-08T12:29:49;25.30;50.40
55828;DHT22;41758;51.992;5.890;2023-08-08T12:32:15;25.30;51.60
55828;DHT22;41758;51.992;5.890;2023-08-08T12:34:41;25.50;50.60
55828;DHT22;41758;51.992;5.890;2023-08-08T12:37:07;25.70;48.80
55828;DHT22;41758;51.992;5.890;2023-08-08T12:39:33;25.80;46.90
55828;DHT22;41758;51.992;5.890;2023-08-08T12:41:58;25.80;46.20
55828;DHT22;41758;51.992;5.890;2023-08-08T12:44:24;25.80;46.90
55828;DHT22;41758;51.992;5.890;2023-08-08T12:46:50;25.80;48.10
55828;DHT22;41758;51.992;5.890;2023-08-08T12:49:16;25.90;48.30
55828;DHT22;41758;51.992;5.890;2023-08-08T12:51:42;25.90;49.40
55828;DHT22;41758;51.992;5.890;2023-08-08T12:54:07;26.00;49.00
55828;DHT22;41758;51.992;5.890;2023-08-08T12:56:33;26.00;49.10
55828;DHT22;41758;51.992;5.890;2023-08-08T12:58:59;26.00;46.10
55828;DHT22;41758;51.992;5.890;2023-08-08T13:01:24;25.90;48.20
55828;DHT22;41758;51.992;5.890;2023-08-08T13:03:52;26.00;49.20
55828;DHT22;41758;51.992;5.890;2023-08-08T13:06:18;26.00;47.40
55828;DHT22;41758;51.992;5.890;2023-08-08T13:08:43;25.90;48.00
55828;DHT22;41758;51.992;5.890;2023-08-08T13:11:09;25.80;44.10
55828;DHT22;41758;51.992;5.890;2023-08-08T13:13:35;25.60;45.30
55828;DHT22;41758;51.992;5.890;2023-08-08T13:16:01;25.40;45.50
55828;DHT22;41758;51.992;5.890;2023-08-08T13:18:26;25.30;46.20
55828;DHT22;41758;51.992;5.890;2023-08-08T13:20:52;25.10;47.30
55828;DHT22;41758;51.992;5.890;2023-08-08T13:23:18;24.90;46.90
55828;DHT22;41758;51.992;5.890;2023-08-08T13:25:44;24.80;45.60
55828;DHT22;41758;51.992;5.890;2023-08-08T13:28:10;24.60;46.30
55828;DHT22;41758;51.992;5.890;2023-08-08T13:30:35;24.50;46.60
55828;DHT22;41758;51.992;5.890;2023-08-08T13:33:01;24.40;48.00
55828;DHT22;41758;51.992;5.890;2023-08-08T13:35:27;24.40;47.70
55828;DHT22;41758;51.992;5.890;2023-08-08T13:37:53;24.40;49.10
55828;DHT22;41758;51.992;5.890;2023-08-08T13:40:20;24.50;49.20
55828;DHT22;41758;51.992;5.890;2023-08-08T13:42:46;24.60;49.50
55828;DHT22;41758;51.992;5.890;2023-08-08T13:45:20;24.80;46.80
55828;DHT22;41758;51.992;5.890;2023-08-08T13:47:47;24.80;47.90
55828;DHT22;41758;51.992;5.890;2023-08-08T13:50:16;24.80;47.60
55828;DHT22;41758;51.992;5.890;2023-08-08T13:52:42;24.90;46.90
55828;DHT22;41758;51.992;5.890;2023-08-08T13:55:08;24.90;47.80
55828;DHT22;41758;51.992;5.890;2023-08-08T13:57:34;24.90;46.20
55828;DHT22;41758;51.992;5.890;2023-08-08T14:00:01;24.80;46.90
55828;DHT22;41758;51.992;5.890;2023-08-08T14:02:33;24.70;47.10
55828;DHT22;41758;51.992;5.890;2023-08-08T14:04:59;24.60;48.20
55828;DHT22;41758;51.992;5.890;2023-08-08T14:07:24;24.50;47.80
55828;DHT22;41758;51.992;5.890;2023-08-08T14:09:50;24.40;47.30
55828;DHT22;41758;51.992;5.890;2023-08-08T14:12:16;24.40;46.90
55828;DHT22;41758;51.992;5.890;2023-08-08T14:14:42;24.40;48.30
55828;DHT22;41758;51.992;5.890;2023-08-08T14:17:08;24.40;48.70
55828;DHT22;41758;51.992;5.890;2023-08-08T14:19:33;24.50;47.80
55828;DHT22;41758;51.992;5.890;2023-08-08T14:21:59;24.50;49.10
55828;DHT22;41758;51.992;5.890;2023-08-08T14:24:25;24.60;47.00
55828;DHT22;41758;51.992;5.890;2023-08-08T14:26:51;24.50;48.00
55828;DHT22;41758;51.992;5.890;2023-08-08T14:29:16;24.40;48.70
55828;DHT22;41758;51.992;5.890;2023-08-08T14:31:42;24.40;48.70
55828;DHT22;41758;51.992;5.890;2023-08-08T14:34:08;24.40;47.00
55828;DHT22;41758;51.992;5.890;2023-08-08T14:36:34;24.30;48.50
55828;DHT22;41758;51.992;5.890;2023-08-08T14:39:00;24.30;47.50
55828;DHT22;41758;51.992;5.890;2023-08-08T14:41:26;24.30;47.60
55828;DHT22;41758;51.992;5.890;2023-08-08T14:43:51;24.40;49.30
55828;DHT22;41758;51.992;5.890;2023-08-08T14:46:17;24.50;48.30
55828;DHT22;41758;51.992;5.890;2023-08-08T14:48:43;24.60;48.40
55828;DHT22;41758;51.992;5.890;2023-08-08T14:51:08;24.70;48.70
55828;DHT22;41758;51.992;5.890;2023-08-08T14:53:34;24.70;47.50
55828;DHT22;41758;51.992;5.890;2023-08-08T14:56:00;24.80;45.50
55828;DHT22;41758;51.992;5.890;2023-08-08T14:58:26;24.90;47.60
55828;DHT22;41758;51.992;5.890;2023-08-08T15:00:51;25.00;47.20
55828;DHT22;41758;51.992;5.890;2023-08-08T15:03:17;25.10;45.50
55828;DHT22;41758;51.992;5.890;2023-08-08T15:05:45;25.10;45.30
55828;DHT22;41758;51.992;5.890;2023-08-08T15:08:11;25.00;46.10
55828;DHT22;41758;51.992;5.890;2023-08-08T15:10:37;25.00;44.00
55828;DHT22;41758;51.992;5.890;2023-08-08T15:13:03;25.10;44.40
55828;DHT22;41758;51.992;5.890;2023-08-08T15:15:28;25.00;44.20
55828;DHT22;41758;51.992;5.890;2023-08-08T15:17:55;25.10;44.10
55828;DHT22;41758;51.992;5.890;2023-08-08T15:20:21;25.10;45.90
55828;DHT22;41758;51.992;5.890;2023-08-08T15:22:47;25.20;45.80
55828;DHT22;41758;51.992;5.890;2023-08-08T15:25:12;25.30;44.20
55828;DHT22;41758;51.992;5.890;2023-08-08T15:27:38;25.30;43.90
55828;DHT22;41758;51.992;5.890;2023-08-08T15:30:04;25.40;44.30